sensor_id;sensor_type;location;lat;lon;timestamp;pressure;altitude;pressure_sealevel;temperature;humidity
50310;BME280;36207;51.850;21.698;2024-03-02T00:00:22;99649.36;;;6.50;87.47
50310;BME280;36207;51.850;21.698;2024-03-02T00:03:11;99654.16;;;6.48;87.40
50310;BME280;36207;51.850;21.698;2024-03-02T00:05:40;99659.49;;;6.47;87.39
50310;BME280;36207;51.850;21.698;2024-03-02T00:08:07;99658.95;;;6.46;87.39
50310;BME280;36207;51.850;21.698;2024-03-02T00:10:37;99658.89;;;6.45;87.47
50310;BME280;36207;51.850;21.698;2024-03-02T00:13:07;99660.35;;;6.44;87.57
50310;BME280;36207;51.850;21.698;2024-03-02T00:15:47;99664.98;;;6.46;87.49
50310;BME280;36207;51.850;21.698;2024-03-02T00:18:25;99663.14;;;6.45;87.47
50310;BME280;36207;51.850;21.698;2024-03-02T00:20:56;99661.54;;;6.43;87.48
50310;BME280;36207;51.850;21.698;2024-03-02T00:23:29;99657.98;;;6.40;87.50
50310;BME280;36207;51.850;21.698;2024-03-02T00:25:56;99655.52;;;6.38;87.54
50310;BME280;36207;51.850;21.698;2024-03-02T00:28:24;99658.17;;;6.38;87.53
50310;BME280;36207;51.850;21.698;2024-03-02T00:30:54;99656.00;;;6.40;87.54
50310;BME280;36207;51.850;21.698;2024-03-02T00:33:21;99657.73;;;6.43;87.59
50310;BME280;36207;51.850;21.698;2024-03-02T00:35:48;99659.41;;;6.43;87.50
50310;BME280;36207;51.850;21.698;2024-03-02T00:38:15;99658.75;;;6.41;87.55
50310;BME280;36207;51.850;21.698;2024-03-02T00:40:45;99654.05;;;6.41;87.52
50310;BME280;36207;51.850;21.698;2024-03-02T00:46:18;99644.41;;;6.40;87.53
50310;BME280;36207;51.850;21.698;2024-03-02T00:49:04;99642.69;;;6.38;87.61
50310;BME280;36207;51.850;21.698;2024-03-02T00:51:32;99641.71;;;6.35;87.49
50310;BME280;36207;51.850;21.698;2024-03-02T00:54:04;99639.33;;;6.34;87.56
50310;BME280;36207;51.850;21.698;2024-03-02T00:56:30;99637.53;;;6.34;87.63
50310;BME280;36207;51.850;21.698;2024-03-02T00:58:56;99642.02;;;6.35;87.61
50310;BME280;36207;51.850;21.698;2024-03-02T01:01:23;99643.41;;;6.34;87.63
50310;BME280;36207;51.850;21.698;2024-03-02T01:03:50;99636.34;;;6.32;87.52
50310;BME280;36207;51.850;21.698;2024-03-02T01:06:16;99637.06;;;6.32;87.47
50310;BME280;36207;51.850;21.698;2024-03-02T01:08:42;99634.17;;;6.31;87.66
50310;BME280;36207;51.850;21.698;2024-03-02T01:11:09;99626.73;;;6.30;87.54
50310;BME280;36207;51.850;21.698;2024-03-02T01:13:35;99624.27;;;6.31;87.60
50310;BME280;36207;51.850;21.698;2024-03-02T01:16:01;99629.01;;;6.31;87.70
50310;BME280;36207;51.850;21.698;2024-03-02T01:18:28;99633.67;;;6.29;87.58
50310;BME280;36207;51.850;21.698;2024-03-02T01:20:54;99633.20;;;6.27;87.71
50310;BME280;36207;51.850;21.698;2024-03-02T01:23:23;99630.88;;;6.23;87.71
50310;BME280;36207;51.850;21.698;2024-03-02T01:25:50;99632.39;;;6.21;87.71
50310;BME280;36207;51.850;21.698;2024-03-02T01:28:16;99638.88;;;6.19;87.79
50310;BME280;36207;51.850;21.698;2024-03-02T01:30:42;99635.48;;;6.18;87.71
50310;BME280;36207;51.850;21.698;2024-03-02T01:33:08;99633.30;;;6.17;87.81
50310;BME280;36207;51.850;21.698;2024-03-02T01:35:34;99627.90;;;6.17;87.87
50310;BME280;36207;51.850;21.698;2024-03-02T01:38:03;99622.31;;;6.16;87.84
50310;BME280;36207;51.850;21.698;2024-03-02T01:40:33;99614.77;;;6.15;87.84
50310;BME280;36207;51.850;21.698;2024-03-02T01:42:59;99612.17;;;6.15;87.84
50310;BME280;36207;51.850;21.698;2024-03-02T01:45:25;99613.27;;;6.14;87.73
50310;BME280;36207;51.850;21.698;2024-03-02T01:47:52;99617.71;;;6.14;87.86
50310;BME280;36207;51.850;21.698;2024-03-02T01:50:28;99618.61;;;6.14;87.99
50310;BME280;36207;51.850;21.698;2024-03-02T01:52:58;99615.73;;;6.15;87.95
50310;BME280;36207;51.850;21.698;2024-03-02T01:55:25;99611.39;;;6.15;87.94
50310;BME280;36207;51.850;21.698;2024-03-02T01:57:51;99603.91;;;6.16;88.19
50310;BME280;36207;51.850;21.698;2024-03-02T02:00:19;99597.70;;;6.15;88.05
50310;BME280;36207;51.850;21.698;2024-03-02T02:02:46;99593.86;;;6.14;87.95
50310;BME280;36207;51.850;21.698;2024-03-02T02:05:14;99589.18;;;6.12;87.91
50310;BME280;36207;51.850;21.698;2024-03-02T02:07:41;99590.83;;;6.09;87.95
50310;BME280;36207;51.850;21.698;2024-03-02T02:10:09;99594.39;;;6.08;88.01
50310;BME280;36207;51.850;21.698;2024-03-02T02:12:35;99597.66;;;6.05;88.07
50310;BME280;36207;51.850;21.698;2024-03-02T02:15:02;99599.91;;;6.03;88.03
50310;BME280;36207;51.850;21.698;2024-03-02T02:17:28;99599.23;;;6.05;88.17
50310;BME280;36207;51.850;21.698;2024-03-02T02:19:54;99599.32;;;6.04;88.16
50310;BME280;36207;51.850;21.698;2024-03-02T02:22:20;99597.79;;;6.02;88.12
50310;BME280;36207;51.850;21.698;2024-03-02T02:24:46;99595.30;;;6.00;88.08
50310;BME280;36207;51.850;21.698;2024-03-02T02:27:12;99600.02;;;5.99;88.15
50310;BME280;36207;51.850;21.698;2024-03-02T02:29:41;99593.75;;;5.97;88.18
50310;BME280;36207;51.850;21.698;2024-03-02T02:32:07;99593.66;;;5.94;88.22
50310;BME280;36207;51.850;21.698;2024-03-02T02:34:33;99592.81;;;5.92;88.29
50310;BME280;36207;51.850;21.698;2024-03-02T02:36:59;99593.52;;;5.92;88.18
50310;BME280;36207;51.850;21.698;2024-03-02T02:39:25;99595.51;;;5.93;88.32
50310;BME280;36207;51.850;21.698;2024-03-02T02:41:51;99591.42;;;5.92;88.24
50310;BME280;36207;51.850;21.698;2024-03-02T02:44:17;99584.85;;;5.89;88.19
50310;BME280;36207;51.850;21.698;2024-03-02T02:46:43;99582.09;;;5.86;88.22
50310;BME280;36207;51.850;21.698;2024-03-02T02:49:08;99583.02;;;5.84;88.24
50310;BME280;36207;51.850;21.698;2024-03-02T02:51:34;99584.00;;;5.83;88.40
50310;BME280;36207;51.850;21.698;2024-03-02T02:54:01;99582.40;;;5.81;88.26
50310;BME280;36207;51.850;21.698;2024-03-02T02:56:27;99581.86;;;5.81;88.50
50310;BME280;36207;51.850;21.698;2024-03-02T02:58:53;99574.19;;;5.80;88.55
50310;BME280;36207;51.850;21.698;2024-03-02T03:01:19;99570.55;;;5.80;88.58
50310;BME280;36207;51.850;21.698;2024-03-02T03:03:45;99567.83;;;5.79;88.58
50310;BME280;36207;51.850;21.698;2024-03-02T03:06:11;99562.11;;;5.78;88.68
50310;BME280;36207;51.850;21.698;2024-03-02T03:08:37;99559.73;;;5.78;88.70
50310;BME280;36207;51.850;21.698;2024-03-02T03:11:04;99562.52;;;5.77;88.83
50310;BME280;36207;51.850;21.698;2024-03-02T03:13:31;99565.72;;;5.75;88.83
50310;BME280;36207;51.850;21.698;2024-03-02T03:15:57;99566.44;;;5.73;88.97
50310;BME280;36207;51.850;21.698;2024-03-02T03:18:23;99563.59;;;5.72;89.21
50310;BME280;36207;51.850;21.698;2024-03-02T03:20:49;99563.67;;;5.70;89.29
50310;BME280;36207;51.850;21.698;2024-03-02T03:23:15;99563.20;;;5.67;89.65
50310;BME280;36207;51.850;21.698;2024-03-02T03:25:43;99564.95;;;5.66;89.75
50310;BME280;36207;51.850;21.698;2024-03-02T03:28:09;99569.80;;;5.65;90.09
50310;BME280;36207;51.850;21.698;2024-03-02T03:30:38;99569.30;;;5.63;90.05
50310;BME280;36207;51.850;21.698;2024-03-02T03:33:05;99567.40;;;5.63;89.99
50310;BME280;36207;51.850;21.698;2024-03-02T03:35:35;99567.44;;;5.62;90.11
50310;BME280;36207;51.850;21.698;2024-03-02T03:38:02;99569.63;;;5.62;90.26
50310;BME280;36207;51.850;21.698;2024-03-02T03:40:28;99568.47;;;5.62;90.07
50310;BME280;36207;51.850;21.698;2024-03-02T03:42:54;99567.15;;;5.63;89.90
50310;BME280;36207;51.850;21.698;2024-03-02T03:45:22;99566.98;;;5.65;90.15
50310;BME280;36207;51.850;21.698;2024-03-02T03:47:48;99567.15;;;5.65;90.30
50310;BME280;36207;51.850;21.698;2024-03-02T03:50:14;99559.88;;;5.65;89.86
50310;BME280;36207;51.850;21.698;2024-03-02T03:52:40;99564.61;;;5.67;90.43
50310;BME280;36207;51.850;21.698;2024-03-02T03:55:06;99566.92;;;5.65;90.76
50310;BME280;36207;51.850;21.698;2024-03-02T03:57:32;99560.30;;;5.65;90.52
50310;BME280;36207;51.850;21.698;2024-03-02T03:59:58;99565.58;;;5.63;90.64
50310;BME280;36207;51.850;21.698;2024-03-02T04:02:24;99561.42;;;5.62;90.82
50310;BME280;36207;51.850;21.698;2024-03-02T04:04:50;99565.92;;;5.62;91.15
50310;BME280;36207;51.850;21.698;2024-03-02T04:07:16;99573.94;;;5.61;91.23
50310;BME280;36207;51.850;21.698;2024-03-02T04:09:42;99565.23;;;5.61;90.88
50310;BME280;36207;51.850;21.698;2024-03-02T04:12:08;99563.47;;;5.63;90.85
50310;BME280;36207;51.850;21.698;2024-03-02T04:14:34;99569.95;;;5.64;91.09
50310;BME280;36207;51.850;21.698;2024-03-02T04:17:00;99572.31;;;5.64;90.76
50310;BME280;36207;51.850;21.698;2024-03-02T04:19:25;99573.32;;;5.67;90.74
50310;BME280;36207;51.850;21.698;2024-03-02T04:21:51;99572.88;;;5.69;90.60
50310;BME280;36207;51.850;21.698;2024-03-02T04:24:17;99569.58;;;5.74;90.50
50310;BME280;36207;51.850;21.698;2024-03-02T04:26:43;99565.33;;;5.77;90.55
50310;BME280;36207;51.850;21.698;2024-03-02T04:29:09;99561.60;;;5.81;90.43
50310;BME280;36207;51.850;21.698;2024-03-02T04:31:35;99565.48;;;5.83;90.50
50310;BME280;36207;51.850;21.698;2024-03-02T04:34:01;99565.02;;;5.84;90.41
50310;BME280;36207;51.850;21.698;2024-03-02T04:36:27;99564.95;;;5.85;90.29
50310;BME280;36207;51.850;21.698;2024-03-02T04:38:52;99565.29;;;5.85;90.23
50310;BME280;36207;51.850;21.698;2024-03-02T04:41:18;99558.70;;;5.83;90.07
50310;BME280;36207;51.850;21.698;2024-03-02T04:43:44;99567.71;;;5.83;90.32
50310;BME280;36207;51.850;21.698;2024-03-02T04:46:10;99564.96;;;5.82;90.30
50310;BME280;36207;51.850;21.698;2024-03-02T04:48:37;99561.65;;;5.84;90.23
50310;BME280;36207;51.850;21.698;2024-03-02T04:51:03;99562.63;;;5.85;90.15
50310;BME280;36207;51.850;21.698;2024-03-02T04:53:29;99564.27;;;5.84;90.19
50310;BME280;36207;51.850;21.698;2024-03-02T04:55:55;99567.75;;;5.85;90.27
50310;BME280;36207;51.850;21.698;2024-03-02T04:58:40;99562.98;;;5.85;90.32
50310;BME280;36207;51.850;21.698;2024-03-02T05:01:06;99561.02;;;5.85;90.46
50310;BME280;36207;51.850;21.698;2024-03-02T05:03:32;99557.80;;;5.83;90.39
50310;BME280;36207;51.850;21.698;2024-03-02T05:06:00;99555.45;;;5.84;90.36
50310;BME280;36207;51.850;21.698;2024-03-02T05:08:26;99555.73;;;5.85;90.44
50310;BME280;36207;51.850;21.698;2024-03-02T05:10:52;99558.08;;;5.86;90.48
50310;BME280;36207;51.850;21.698;2024-03-02T05:13:18;99562.55;;;5.86;90.75
50310;BME280;36207;51.850;21.698;2024-03-02T05:15:44;99568.30;;;5.85;90.66
50310;BME280;36207;51.850;21.698;2024-03-02T05:18:09;99568.97;;;5.83;90.61
50310;BME280;36207;51.850;21.698;2024-03-02T05:20:35;99574.30;;;5.83;90.66
50310;BME280;36207;51.850;21.698;2024-03-02T05:23:01;99586.97;;;5.82;90.58
50310;BME280;36207;51.850;21.698;2024-03-02T05:25:27;99590.32;;;5.81;90.68
50310;BME280;36207;51.850;21.698;2024-03-02T05:27:53;99593.27;;;5.82;90.71
50310;BME280;36207;51.850;21.698;2024-03-02T05:30:19;99592.05;;;5.82;90.75
50310;BME280;36207;51.850;21.698;2024-03-02T05:32:45;99589.11;;;5.83;90.70
50310;BME280;36207;51.850;21.698;2024-03-02T05:35:11;99595.72;;;5.84;90.88
50310;BME280;36207;51.850;21.698;2024-03-02T05:37:38;99593.31;;;5.83;91.12
50310;BME280;36207;51.850;21.698;2024-03-02T05:40:05;99587.16;;;5.83;90.96
50310;BME280;36207;51.850;21.698;2024-03-02T05:42:31;99590.89;;;5.85;91.11
50310;BME280;36207;51.850;21.698;2024-03-02T05:44:57;99597.05;;;5.85;91.07
50310;BME280;36207;51.850;21.698;2024-03-02T05:47:23;99600.92;;;5.85;91.03
50310;BME280;36207;51.850;21.698;2024-03-02T05:49:49;99613.60;;;5.86;91.00
50310;BME280;36207;51.850;21.698;2024-03-02T05:52:15;99606.64;;;5.86;91.19
50310;BME280;36207;51.850;21.698;2024-03-02T05:54:41;99619.16;;;5.87;91.13
50310;BME280;36207;51.850;21.698;2024-03-02T05:57:07;99624.98;;;5.87;91.02
50310;BME280;36207;51.850;21.698;2024-03-02T05:59:51;99619.20;;;5.88;91.05
50310;BME280;36207;51.850;21.698;2024-03-02T06:02:17;99621.42;;;5.90;90.95
50310;BME280;36207;51.850;21.698;2024-03-02T06:04:43;99610.94;;;5.91;91.21
50310;BME280;36207;51.850;21.698;2024-03-02T06:07:09;99604.34;;;5.91;91.20
50310;BME280;36207;51.850;21.698;2024-03-02T06:09:35;99604.21;;;5.93;91.04
50310;BME280;36207;51.850;21.698;2024-03-02T06:12:00;99603.06;;;5.94;91.11
50310;BME280;36207;51.850;21.698;2024-03-02T06:14:26;99605.45;;;5.96;91.02
50310;BME280;36207;51.850;21.698;2024-03-02T06:16:52;99615.98;;;5.98;91.22
50310;BME280;36207;51.850;21.698;2024-03-02T06:19:18;99621.89;;;5.98;91.03
50310;BME280;36207;51.850;21.698;2024-03-02T06:21:44;99623.21;;;5.99;90.99
50310;BME280;36207;51.850;21.698;2024-03-02T06:24:10;99616.77;;;6.01;91.25
50310;BME280;36207;51.850;21.698;2024-03-02T06:26:36;99620.09;;;6.02;91.09
50310;BME280;36207;51.850;21.698;2024-03-02T06:29:02;99620.48;;;6.01;91.07
50310;BME280;36207;51.850;21.698;2024-03-02T06:31:28;99623.60;;;6.00;91.24
50310;BME280;36207;51.850;21.698;2024-03-02T06:33:54;99637.13;;;5.99;91.26
50310;BME280;36207;51.850;21.698;2024-03-02T06:36:20;99641.27;;;5.98;91.53
50310;BME280;36207;51.850;21.698;2024-03-02T06:38:46;99640.27;;;5.98;91.34
50310;BME280;36207;51.850;21.698;2024-03-02T06:41:12;99636.36;;;5.98;91.33
50310;BME280;36207;51.850;21.698;2024-03-02T06:43:38;99637.70;;;5.97;91.58
50310;BME280;36207;51.850;21.698;2024-03-02T06:46:04;99635.64;;;5.97;91.75
50310;BME280;36207;51.850;21.698;2024-03-02T06:48:31;99635.05;;;5.97;91.70
50310;BME280;36207;51.850;21.698;2024-03-02T06:50:57;99630.80;;;5.97;91.74
50310;BME280;36207;51.850;21.698;2024-03-02T06:53:23;99635.46;;;5.98;91.80
50310;BME280;36207;51.850;21.698;2024-03-02T06:55:49;99635.50;;;5.98;91.84
50310;BME280;36207;51.850;21.698;2024-03-02T06:58:15;99637.70;;;5.99;92.08
50310;BME280;36207;51.850;21.698;2024-03-02T07:00:42;99627.90;;;5.99;91.84
50310;BME280;36207;51.850;21.698;2024-03-02T07:03:08;99627.73;;;5.99;91.88
50310;BME280;36207;51.850;21.698;2024-03-02T07:05:35;99623.66;;;6.00;91.86
50310;BME280;36207;51.850;21.698;2024-03-02T07:08:00;99625.71;;;6.00;92.07
50310;BME280;36207;51.850;21.698;2024-03-02T07:10:28;99631.64;;;6.01;92.05
50310;BME280;36207;51.850;21.698;2024-03-02T07:12:53;99629.43;;;6.03;91.82
50310;BME280;36207;51.850;21.698;2024-03-02T07:15:19;99630.54;;;6.05;91.98
50310;BME280;36207;51.850;21.698;2024-03-02T07:18:08;99631.95;;;6.05;92.03
50310;BME280;36207;51.850;21.698;2024-03-02T07:20:34;99636.48;;;6.06;91.97
50310;BME280;36207;51.850;21.698;2024-03-02T07:23:00;99640.55;;;6.07;92.02
50310;BME280;36207;51.850;21.698;2024-03-02T07:25:26;99639.52;;;6.07;91.92
50310;BME280;36207;51.850;21.698;2024-03-02T07:27:52;99640.66;;;6.08;92.09
50310;BME280;36207;51.850;21.698;2024-03-02T07:30:18;99644.55;;;6.10;92.05
50310;BME280;36207;51.850;21.698;2024-03-02T07:32:44;99649.32;;;6.11;92.00
50310;BME280;36207;51.850;21.698;2024-03-02T07:35:12;99650.55;;;6.13;92.11
50310;BME280;36207;51.850;21.698;2024-03-02T07:37:39;99651.05;;;6.13;92.02
50310;BME280;36207;51.850;21.698;2024-03-02T07:40:06;99658.02;;;6.14;92.04
50310;BME280;36207;51.850;21.698;2024-03-02T07:42:35;99661.50;;;6.16;92.16
50310;BME280;36207;51.850;21.698;2024-03-02T07:45:01;99664.38;;;6.18;92.33
50310;BME280;36207;51.850;21.698;2024-03-02T07:47:28;99669.25;;;6.18;92.05
50310;BME280;36207;51.850;21.698;2024-03-02T07:49:54;99664.83;;;6.18;91.91
50310;BME280;36207;51.850;21.698;2024-03-02T07:52:20;99669.98;;;6.23;91.92
50310;BME280;36207;51.850;21.698;2024-03-02T07:54:46;99671.03;;;6.27;91.93
50310;BME280;36207;51.850;21.698;2024-03-02T07:57:12;99667.98;;;6.32;92.09
50310;BME280;36207;51.850;21.698;2024-03-02T07:59:38;99668.41;;;6.38;92.00
50310;BME280;36207;51.850;21.698;2024-03-02T08:02:04;99667.70;;;6.43;92.00
50310;BME280;36207;51.850;21.698;2024-03-02T08:04:30;99666.80;;;6.43;91.71
50310;BME280;36207;51.850;21.698;2024-03-02T08:06:56;99664.55;;;6.42;91.81
50310;BME280;36207;51.850;21.698;2024-03-02T08:09:22;99664.55;;;6.43;91.67
50310;BME280;36207;51.850;21.698;2024-03-02T08:11:48;99664.70;;;6.47;91.77
50310;BME280;36207;51.850;21.698;2024-03-02T08:14:14;99664.66;;;6.49;91.73
50310;BME280;36207;51.850;21.698;2024-03-02T08:16:41;99661.95;;;6.51;91.79
50310;BME280;36207;51.850;21.698;2024-03-02T08:19:07;99658.38;;;6.51;91.55
50310;BME280;36207;51.850;21.698;2024-03-02T08:21:34;99663.17;;;6.55;91.54
50310;BME280;36207;51.850;21.698;2024-03-02T08:24:02;99663.33;;;6.56;91.56
50310;BME280;36207;51.850;21.698;2024-03-02T08:26:28;99669.99;;;6.58;91.54
50310;BME280;36207;51.850;21.698;2024-03-02T08:28:55;99668.14;;;6.59;91.47
50310;BME280;36207;51.850;21.698;2024-03-02T08:31:22;99668.32;;;6.61;91.53
50310;BME280;36207;51.850;21.698;2024-03-02T08:33:48;99666.95;;;6.64;91.49
50310;BME280;36207;51.850;21.698;2024-03-02T08:36:14;99668.20;;;6.67;91.54
50310;BME280;36207;51.850;21.698;2024-03-02T08:38:40;99668.67;;;6.73;91.64
50310;BME280;36207;51.850;21.698;2024-03-02T08:41:07;99674.76;;;6.79;91.71
50310;BME280;36207;51.850;21.698;2024-03-02T08:43:33;99678.27;;;6.84;91.42
50310;BME280;36207;51.850;21.698;2024-03-02T08:45:59;99676.05;;;6.88;91.53
50310;BME280;36207;51.850;21.698;2024-03-02T08:48:25;99679.33;;;6.94;91.39
50310;BME280;36207;51.850;21.698;2024-03-02T08:50:51;99682.45;;;6.96;91.20
50310;BME280;36207;51.850;21.698;2024-03-02T08:53:17;99682.85;;;6.99;91.41
50310;BME280;36207;51.850;21.698;2024-03-02T08:55:47;99681.50;;;7.02;91.19
50310;BME280;36207;51.850;21.698;2024-03-02T08:58:13;99683.40;;;7.02;91.07
50310;BME280;36207;51.850;21.698;2024-03-02T09:00:40;99682.89;;;7.05;91.10
50310;BME280;36207;51.850;21.698;2024-03-02T09:03:06;99685.08;;;7.06;90.90
50310;BME280;36207;51.850;21.698;2024-03-02T09:05:32;99685.29;;;7.06;90.69
50310;BME280;36207;51.850;21.698;2024-03-02T09:07:58;99685.71;;;7.07;90.69
50310;BME280;36207;51.850;21.698;2024-03-02T09:10:24;99683.46;;;7.10;90.95
50310;BME280;36207;51.850;21.698;2024-03-02T09:12:50;99684.77;;;7.14;91.03
50310;BME280;36207;51.850;21.698;2024-03-02T09:15:16;99682.70;;;7.19;90.96
50310;BME280;36207;51.850;21.698;2024-03-02T09:17:42;99680.58;;;7.24;91.04
50310;BME280;36207;51.850;21.698;2024-03-02T09:20:08;99681.41;;;7.27;90.69
50310;BME280;36207;51.850;21.698;2024-03-02T09:22:34;99679.06;;;7.28;90.37
50310;BME280;36207;51.850;21.698;2024-03-02T09:25:00;99677.90;;;7.31;90.72
50310;BME280;36207;51.850;21.698;2024-03-02T09:27:26;99674.08;;;7.36;90.98
50310;BME280;36207;51.850;21.698;2024-03-02T09:29:52;99676.19;;;7.41;90.88
50310;BME280;36207;51.850;21.698;2024-03-02T09:32:18;99680.08;;;7.46;90.87
50310;BME280;36207;51.850;21.698;2024-03-02T09:34:44;99680.38;;;7.50;90.60
50310;BME280;36207;51.850;21.698;2024-03-02T09:37:10;99679.84;;;7.53;90.54
50310;BME280;36207;51.850;21.698;2024-03-02T09:39:36;99676.07;;;7.56;90.38
50310;BME280;36207;51.850;21.698;2024-03-02T09:42:04;99676.88;;;7.59;90.40
50310;BME280;36207;51.850;21.698;2024-03-02T09:44:30;99677.97;;;7.62;90.30
50310;BME280;36207;51.850;21.698;2024-03-02T09:46:56;99679.16;;;7.65;90.11
50310;BME280;36207;51.850;21.698;2024-03-02T09:49:22;99678.02;;;7.65;89.58
50310;BME280;36207;51.850;21.698;2024-03-02T09:51:48;99678.56;;;7.67;89.96
50310;BME280;36207;51.850;21.698;2024-03-02T09:54:15;99678.30;;;7.71;90.28
50310;BME280;36207;51.850;21.698;2024-03-02T09:56:42;99674.30;;;7.76;90.36
50310;BME280;36207;51.850;21.698;2024-03-02T09:59:08;99674.38;;;7.80;90.20
50310;BME280;36207;51.850;21.698;2024-03-02T10:01:34;99671.52;;;7.84;90.07
50310;BME280;36207;51.850;21.698;2024-03-02T10:04:00;99674.34;;;7.86;89.67
50310;BME280;36207;51.850;21.698;2024-03-02T10:06:28;99668.27;;;7.86;89.35
50310;BME280;36207;51.850;21.698;2024-03-02T10:08:55;99667.65;;;7.90;89.80
50310;BME280;36207;51.850;21.698;2024-03-02T10:11:39;99661.77;;;7.93;89.75
50310;BME280;36207;51.850;21.698;2024-03-02T10:14:07;99664.14;;;7.98;89.65
50310;BME280;36207;51.850;21.698;2024-03-02T10:16:37;99666.59;;;8.01;89.22
50310;BME280;36207;51.850;21.698;2024-03-02T10:21:47;99662.35;;;8.07;89.31
50310;BME280;36207;51.850;21.698;2024-03-02T10:24:13;99662.96;;;8.10;89.26
50310;BME280;36207;51.850;21.698;2024-03-02T10:26:39;99660.16;;;8.11;89.04
50310;BME280;36207;51.850;21.698;2024-03-02T10:29:05;99662.68;;;8.12;89.00
50310;BME280;36207;51.850;21.698;2024-03-02T10:31:31;99662.61;;;8.15;88.99
50310;BME280;36207;51.850;21.698;2024-03-02T10:33:58;99664.30;;;8.17;88.94
50310;BME280;36207;51.850;21.698;2024-03-02T10:36:25;99661.08;;;8.19;89.00
50310;BME280;36207;51.850;21.698;2024-03-02T10:38:52;99657.86;;;8.22;88.75
50310;BME280;36207;51.850;21.698;2024-03-02T10:41:24;99658.71;;;8.24;88.28
50310;BME280;36207;51.850;21.698;2024-03-02T10:43:53;99653.33;;;8.24;88.36
50310;BME280;36207;51.850;21.698;2024-03-02T10:46:29;99646.94;;;8.26;88.72
50310;BME280;36207;51.850;21.698;2024-03-02T10:48:57;99646.65;;;8.30;88.91
50310;BME280;36207;51.850;21.698;2024-03-02T10:51:27;99650.16;;;8.34;88.89
50310;BME280;36207;51.850;21.698;2024-03-02T10:53:58;99649.52;;;8.38;88.71
50310;BME280;36207;51.850;21.698;2024-03-02T10:56:31;99645.52;;;8.41;88.45
50310;BME280;36207;51.850;21.698;2024-03-02T11:01:47;99642.99;;;8.45;88.55
50310;BME280;36207;51.850;21.698;2024-03-02T11:04:16;99643.29;;;8.52;88.87
50310;BME280;36207;51.850;21.698;2024-03-02T11:06:48;99640.45;;;8.59;88.84
50310;BME280;36207;51.850;21.698;2024-03-02T11:09:16;99630.86;;;8.65;88.66
50310;BME280;36207;51.850;21.698;2024-03-02T11:11:45;99623.52;;;8.72;88.65
50310;BME280;36207;51.850;21.698;2024-03-02T11:14:17;99619.18;;;8.77;88.18
50310;BME280;36207;51.850;21.698;2024-03-02T11:16:43;99619.98;;;8.81;88.05
50310;BME280;36207;51.850;21.698;2024-03-02T11:19:12;99632.71;;;8.87;88.04
50310;BME280;36207;51.850;21.698;2024-03-02T11:21:38;99640.52;;;8.90;86.64
50310;BME280;36207;51.850;21.698;2024-03-02T11:26:47;99638.83;;;8.92;87.12
50310;BME280;36207;51.850;21.698;2024-03-02T11:29:49;99641.33;;;8.97;87.21
50310;BME280;36207;51.850;21.698;2024-03-02T11:32:17;99643.28;;;9.00;86.26
50310;BME280;36207;51.850;21.698;2024-03-02T11:34:49;99645.60;;;9.00;87.04
50310;BME280;36207;51.850;21.698;2024-03-02T11:37:19;99643.55;;;9.04;86.94
50310;BME280;36207;51.850;21.698;2024-03-02T11:39:50;99643.01;;;9.04;86.26
50310;BME280;36207;51.850;21.698;2024-03-02T11:42:17;99639.02;;;9.00;85.90
50310;BME280;36207;51.850;21.698;2024-03-02T11:44:47;99639.58;;;9.00;86.69
50310;BME280;36207;51.850;21.698;2024-03-02T11:47:15;99638.73;;;9.03;87.14
50310;BME280;36207;51.850;21.698;2024-03-02T11:49:49;99643.17;;;9.06;86.86
50310;BME280;36207;51.850;21.698;2024-03-02T11:52:16;99638.46;;;9.06;86.74
50310;BME280;36207;51.850;21.698;2024-03-02T11:54:45;99640.23;;;9.07;86.48
50310;BME280;36207;51.850;21.698;2024-03-02T11:57:17;99638.52;;;9.08;86.36
50310;BME280;36207;51.850;21.698;2024-03-02T11:59:44;99639.70;;;9.10;86.26
50310;BME280;36207;51.850;21.698;2024-03-02T12:02:19;99640.83;;;9.11;86.58
50310;BME280;36207;51.850;21.698;2024-03-02T12:04:46;99638.69;;;9.12;86.49
50310;BME280;36207;51.850;21.698;2024-03-02T12:07:23;99635.27;;;9.14;86.34
50310;BME280;36207;51.850;21.698;2024-03-02T12:09:59;99637.90;;;9.14;86.14
50310;BME280;36207;51.850;21.698;2024-03-02T12:12:26;99636.31;;;9.14;85.98
50310;BME280;36207;51.850;21.698;2024-03-02T12:14:53;99638.63;;;9.13;85.63
50310;BME280;36207;51.850;21.698;2024-03-02T12:17:22;99638.58;;;9.09;85.63
50310;BME280;36207;51.850;21.698;2024-03-02T12:19:48;99640.99;;;9.06;85.44
50310;BME280;36207;51.850;21.698;2024-03-02T12:22:14;99639.41;;;9.05;85.79
50310;BME280;36207;51.850;21.698;2024-03-02T12:24:41;99641.20;;;9.03;85.37
50310;BME280;36207;51.850;21.698;2024-03-02T12:27:12;99643.02;;;9.00;85.71
50310;BME280;36207;51.850;21.698;2024-03-02T12:29:38;99643.04;;;8.99;85.73
50310;BME280;36207;51.850;21.698;2024-03-02T12:32:05;99646.44;;;8.99;85.56
50310;BME280;36207;51.850;21.698;2024-03-02T12:34:31;99647.23;;;8.97;85.28
50310;BME280;36207;51.850;21.698;2024-03-02T12:36:58;99646.89;;;8.97;85.58
50310;BME280;36207;51.850;21.698;2024-03-02T12:39:24;99645.98;;;8.99;85.31
50310;BME280;36207;51.850;21.698;2024-03-02T12:41:51;99648.73;;;8.98;85.50
50310;BME280;36207;51.850;21.698;2024-03-02T12:44:20;99651.67;;;8.99;85.33
50310;BME280;36207;51.850;21.698;2024-03-02T12:46:46;99649.39;;;8.97;85.09
50310;BME280;36207;51.850;21.698;2024-03-02T12:49:14;99647.09;;;8.93;84.44
50310;BME280;36207;51.850;21.698;2024-03-02T12:51:44;99648.21;;;8.88;84.64
50310;BME280;36207;51.850;21.698;2024-03-02T12:54:12;99644.05;;;8.84;84.44
50310;BME280;36207;51.850;21.698;2024-03-02T12:56:41;99642.14;;;8.81;84.38
50310;BME280;36207;51.850;21.698;2024-03-02T12:59:21;99640.60;;;8.82;84.89
50310;BME280;36207;51.850;21.698;2024-03-02T13:01:54;99640.55;;;8.81;84.56
50310;BME280;36207;51.850;21.698;2024-03-02T13:04:27;99637.69;;;8.80;84.38
50310;BME280;36207;51.850;21.698;2024-03-02T13:06:57;99634.03;;;8.76;84.16
50310;BME280;36207;51.850;21.698;2024-03-02T13:09:23;99633.41;;;8.75;84.74
50310;BME280;36207;51.850;21.698;2024-03-02T13:11:50;99633.10;;;8.75;84.57